createdAt,value
2023-01-25T00:00:46.669Z,0
2023-01-25T00:01:46.707Z,0
2023-01-25T00:02:46.732Z,0
2023-01-25T00:03:46.672Z,0
2023-01-25T00:04:46.690Z,0
2023-01-25T00:05:46.674Z,0
2023-01-25T00:06:46.667Z,0
2023-01-25T00:07:46.681Z,0
2023-01-25T00:08:46.673Z,0
2023-01-25T00:09:46.673Z,0
2023-01-25T00:10:46.778Z,0
2023-01-25T00:11:46.670Z,0
2023-01-25T00:12:46.671Z,0
2023-01-25T00:13:46.678Z,0
2023-01-25T00:14:46.675Z,0
2023-01-25T00:15:46.685Z,0
2023-01-25T00:16:46.704Z,5.4
2023-01-25T00:17:46.681Z,4.2
2023-01-25T00:18:46.678Z,1.7000000000000002
2023-01-25T00:19:46.679Z,2
2023-01-25T00:20:46.685Z,2.3000000000000003
2023-01-25T00:21:46.690Z,2.2
2023-01-25T00:22:46.691Z,0.7000000000000001
2023-01-25T00:23:46.781Z,1.1
2023-01-25T00:24:46.683Z,0
2023-01-25T00:25:46.692Z,0
2023-01-25T00:26:46.718Z,0
2023-01-25T00:27:46.688Z,0
2023-01-25T00:28:46.697Z,0
2023-01-25T00:29:46.672Z,0
2023-01-25T00:30:46.685Z,0
2023-01-25T00:31:46.796Z,1.9000000000000001
2023-01-25T00:32:46.811Z,1.2000000000000002
2023-01-25T00:33:46.703Z,0
2023-01-25T00:34:46.699Z,0
2023-01-25T00:35:46.679Z,2.9000000000000004
2023-01-25T00:36:46.686Z,1.4000000000000001
2023-01-25T00:37:46.696Z,0
2023-01-25T00:38:46.688Z,0
2023-01-25T00:39:46.685Z,0
2023-01-25T00:40:46.697Z,0
2023-01-25T00:41:46.688Z,0
2023-01-25T00:42:46.713Z,0
2023-01-25T00:43:46.680Z,0
2023-01-25T00:44:46.693Z,0
2023-01-25T00:45:46.719Z,0
2023-01-25T00:46:46.694Z,0
2023-01-25T00:47:46.680Z,0
2023-01-25T00:48:46.691Z,0
2023-01-25T00:49:46.688Z,0
2023-01-25T00:50:46.698Z,0
2023-01-25T00:51:46.693Z,0
2023-01-25T00:52:46.689Z,0
2023-01-25T00:53:46.704Z,0
2023-01-25T00:54:46.699Z,0
2023-01-25T00:55:46.701Z,0
2023-01-25T00:56:46.688Z,0
2023-01-25T00:57:46.706Z,0
2023-01-25T00:58:46.726Z,0
2023-01-25T00:59:46.716Z,0
2023-01-25T01:00:46.823Z,0
2023-01-25T01:01:46.704Z,0
2023-01-25T01:02:46.735Z,0
2023-01-25T01:03:46.700Z,0
2023-01-25T01:04:46.756Z,0
2023-01-25T01:05:46.709Z,0
2023-01-25T01:06:46.714Z,0
2023-01-25T01:07:46.713Z,0
2023-01-25T01:08:46.725Z,0
2023-01-25T01:09:46.722Z,0
2023-01-25T01:10:46.712Z,0
2023-01-25T01:11:46.725Z,0
2023-01-25T01:12:46.714Z,0
2023-01-25T01:13:46.725Z,0
2023-01-25T01:14:46.746Z,0
2023-01-25T01:15:46.714Z,0
2023-01-25T01:16:46.785Z,0
2023-01-25T01:17:46.724Z,0
2023-01-25T01:18:46.734Z,0
2023-01-25T01:19:46.729Z,0
2023-01-25T01:20:46.737Z,0
2023-01-25T01:21:46.743Z,0
2023-01-25T01:22:46.737Z,0
2023-01-25T01:23:46.785Z,0
2023-01-25T01:24:46.745Z,0
2023-01-25T01:25:46.734Z,0
2023-01-25T01:26:46.738Z,0
2023-01-25T01:27:46.754Z,0
2023-01-25T01:28:46.766Z,0
2023-01-25T01:29:46.758Z,0
2023-01-25T01:30:46.781Z,0
2023-01-25T01:31:46.855Z,0
2023-01-25T01:32:46.848Z,0
2023-01-25T01:33:46.755Z,0
2023-01-25T01:34:46.772Z,0
2023-01-25T01:35:46.786Z,0
2023-01-25T01:36:46.765Z,0
2023-01-25T01:37:46.774Z,0
2023-01-25T01:38:46.769Z,0
2023-01-25T01:39:46.790Z,0
2023-01-25T01:40:46.772Z,0
2023-01-25T01:41:46.784Z,0
2023-01-25T01:42:46.775Z,0
2023-01-25T01:43:46.781Z,0
2023-01-25T01:44:46.776Z,0
2023-01-25T01:45:46.827Z,0
2023-01-25T01:46:46.802Z,0
2023-01-25T01:47:46.779Z,0
2023-01-25T01:48:46.796Z,0
2023-01-25T01:49:46.793Z,0
2023-01-25T01:50:46.786Z,0
2023-01-25T01:51:46.790Z,0
2023-01-25T01:52:46.795Z,0
2023-01-25T01:53:46.799Z,0
2023-01-25T01:54:46.796Z,0
2023-01-25T01:55:46.806Z,0
2023-01-25T01:56:46.799Z,0
2023-01-25T01:57:46.818Z,0
2023-01-25T01:58:46.813Z,0
2023-01-25T01:59:46.809Z,0
2023-01-25T02:00:46.823Z,0
2023-01-25T02:01:46.811Z,0
2023-01-25T02:02:46.952Z,0
2023-01-25T02:03:46.808Z,0
2023-01-25T02:04:46.807Z,0
2023-01-25T02:05:46.830Z,0
2023-01-25T02:06:46.823Z,0
2023-01-25T02:07:46.824Z,0
2023-01-25T02:08:46.828Z,0
2023-01-25T02:09:46.830Z,0
2023-01-25T02:10:46.827Z,0
2023-01-25T02:11:46.833Z,0
2023-01-25T02:12:46.835Z,0
2023-01-25T02:13:46.831Z,0
2023-01-25T02:14:46.835Z,0
2023-01-25T02:15:46.862Z,0
2023-01-25T02:16:46.856Z,0
2023-01-25T02:17:46.841Z,0
2023-01-25T02:18:46.871Z,0
2023-01-25T02:19:46.836Z,0
2023-01-25T02:20:46.837Z,0
2023-01-25T02:21:46.850Z,4.3
2023-01-25T02:22:46.835Z,4.7
2023-01-25T02:23:46.886Z,2.3000000000000003
2023-01-25T02:24:46.843Z,0.5
2023-01-25T02:25:46.838Z,0.9
2023-01-25T02:26:46.854Z,0
2023-01-25T02:27:46.858Z,0
2023-01-25T02:28:46.840Z,0
2023-01-25T02:29:46.847Z,0
2023-01-25T02:30:46.877Z,0
2023-01-25T02:31:46.928Z,0
2023-01-25T02:32:46.867Z,0
2023-01-25T02:33:46.852Z,0
2023-01-25T02:34:46.871Z,0
2023-01-25T02:35:46.848Z,0
2023-01-25T02:36:46.852Z,0
2023-01-25T02:37:46.860Z,0
2023-01-25T02:38:46.848Z,0
2023-01-25T02:39:46.857Z,0
2023-01-25T02:40:46.865Z,0
2023-01-25T02:41:46.858Z,0
2023-01-25T02:42:46.864Z,0
2023-01-25T02:43:46.866Z,0
2023-01-25T02:44:46.870Z,0
2023-01-25T02:45:46.900Z,0
2023-01-25T02:46:46.888Z,0
2023-01-25T02:47:46.883Z,0
2023-01-25T02:48:46.871Z,0
2023-01-25T02:49:46.879Z,0
2023-01-25T02:50:46.903Z,0
2023-01-25T02:51:46.875Z,0
2023-01-25T02:52:46.894Z,0
2023-01-25T02:53:46.881Z,0
2023-01-25T02:54:46.886Z,0
2023-01-25T02:55:46.887Z,0
2023-01-25T02:56:46.898Z,0
2023-01-25T02:57:46.930Z,0
2023-01-25T02:58:46.917Z,0
2023-01-25T02:59:46.897Z,0
2023-01-25T03:00:46.901Z,0
2023-01-25T03:01:46.931Z,0
2023-01-25T03:02:46.970Z,0
2023-01-25T03:03:46.903Z,0
2023-01-25T03:04:46.913Z,0
2023-01-25T03:05:46.907Z,0
2023-01-25T03:06:46.933Z,0
2023-01-25T03:07:46.905Z,0
2023-01-25T03:08:46.908Z,0
2023-01-25T03:09:46.959Z,0
2023-01-25T03:10:46.907Z,0
2023-01-25T03:11:46.918Z,0
2023-01-25T03:12:46.923Z,0
2023-01-25T03:13:46.910Z,0
2023-01-25T03:14:46.922Z,1
2023-01-25T03:15:46.983Z,1.5
2023-01-25T03:16:46.930Z,0
2023-01-25T03:17:46.927Z,0
2023-01-25T03:18:46.927Z,0
2023-01-25T03:19:46.924Z,0
2023-01-25T03:20:46.938Z,0
2023-01-25T03:21:46.926Z,0
2023-01-25T03:22:46.963Z,0
2023-01-25T03:23:47.042Z,0
2023-01-25T03:24:46.945Z,0
2023-01-25T03:25:46.927Z,0
2023-01-25T03:26:46.934Z,0
2023-01-25T03:27:46.936Z,0
2023-01-25T03:28:46.939Z,0
2023-01-25T03:29:46.938Z,0
2023-01-25T03:30:46.931Z,0
2023-01-25T03:31:47.078Z,0
2023-01-25T03:32:46.943Z,0
2023-01-25T03:33:46.948Z,0
2023-01-25T03:34:46.941Z,0
2023-01-25T03:35:47.018Z,0
2023-01-25T03:36:46.970Z,0
2023-01-25T03:37:46.956Z,0
2023-01-25T03:38:46.990Z,0
2023-01-25T03:39:46.951Z,0
2023-01-25T03:40:46.978Z,0
2023-01-25T03:41:46.950Z,0
2023-01-25T03:42:46.959Z,0
2023-01-25T03:43:46.957Z,0
2023-01-25T03:44:46.962Z,0
2023-01-25T03:45:46.953Z,0
2023-01-25T03:46:47.007Z,0
2023-01-25T03:47:46.967Z,0
2023-01-25T03:48:46.973Z,0
2023-01-25T03:49:46.972Z,0
2023-01-25T03:50:46.982Z,0
2023-01-25T03:51:46.987Z,0
2023-01-25T03:52:46.960Z,0
2023-01-25T03:53:47.007Z,0
2023-01-25T03:54:47.002Z,0
2023-01-25T03:55:46.989Z,0
2023-01-25T03:56:46.973Z,0
2023-01-25T03:57:46.975Z,0
2023-01-25T03:58:46.991Z,0
2023-01-25T03:59:46.993Z,0
2023-01-25T04:00:47.062Z,0
2023-01-25T04:01:46.996Z,0
2023-01-25T04:02:46.981Z,0
2023-01-25T04:03:46.987Z,0
2023-01-25T04:04:46.993Z,0
2023-01-25T04:05:46.991Z,0
2023-01-25T04:06:47.001Z,0
2023-01-25T04:07:46.993Z,0
2023-01-25T04:08:46.994Z,0
2023-01-25T04:09:46.999Z,0
2023-01-25T04:10:47.013Z,0
2023-01-25T04:11:46.998Z,0
2023-01-25T04:12:47.002Z,0
2023-01-25T04:13:47.005Z,0
2023-01-25T04:14:47.013Z,0
2023-01-25T04:15:47.000Z,0
2023-01-25T04:16:47.040Z,0
2023-01-25T04:17:47.007Z,0
2023-01-25T04:18:46.994Z,0
2023-01-25T04:19:47.004Z,0
2023-01-25T04:20:47.013Z,0
2023-01-25T04:21:47.010Z,0
2023-01-25T04:22:47.007Z,0
2023-01-25T04:23:47.026Z,0
2023-01-25T04:24:47.006Z,0
2023-01-25T04:25:47.010Z,0
2023-01-25T04:26:47.033Z,0
2023-01-25T04:27:47.010Z,0
2023-01-25T04:28:47.012Z,0
2023-01-25T04:29:47.005Z,0
2023-01-25T04:30:47.023Z,0
2023-01-25T04:31:47.106Z,0
2023-01-25T04:32:47.141Z,0
2023-01-25T04:33:47.018Z,0
2023-01-25T04:34:47.031Z,0
2023-01-25T04:35:47.036Z,0
2023-01-25T04:36:47.018Z,0
2023-01-25T04:37:47.036Z,0
2023-01-25T04:38:47.023Z,0
2023-01-25T04:39:47.030Z,0
2023-01-25T04:40:47.015Z,0
2023-01-25T04:41:47.028Z,0
2023-01-25T04:42:47.051Z,0
2023-01-25T04:43:47.024Z,0
2023-01-25T04:44:47.031Z,0
2023-01-25T04:45:47.093Z,0
2023-01-25T04:46:47.027Z,0
2023-01-25T04:47:47.035Z,0
2023-01-25T04:48:47.041Z,0
2023-01-25T04:49:47.073Z,0
2023-01-25T04:50:47.026Z,0
2023-01-25T04:51:47.040Z,0
2023-01-25T04:52:47.031Z,0
2023-01-25T04:53:47.033Z,0
2023-01-25T04:54:47.049Z,0
2023-01-25T04:55:47.044Z,0
2023-01-25T04:56:47.052Z,0
2023-01-25T04:57:47.048Z,0
2023-01-25T04:58:47.089Z,0
2023-01-25T04:59:47.036Z,0
2023-01-25T05:00:47.045Z,0
2023-01-25T05:01:47.050Z,0
2023-01-25T05:02:47.227Z,0
2023-01-25T05:03:47.060Z,0
2023-01-25T05:04:47.052Z,0
2023-01-25T05:05:47.047Z,0
2023-01-25T05:06:47.057Z,0
2023-01-25T05:07:47.041Z,0
2023-01-25T05:08:47.055Z,0
2023-01-25T05:09:47.051Z,0
2023-01-25T05:10:47.059Z,0
2023-01-25T05:11:47.058Z,0
2023-01-25T05:12:47.066Z,0
2023-01-25T05:13:47.072Z,0
2023-01-25T05:14:47.084Z,0
2023-01-25T05:15:47.048Z,0
2023-01-25T05:16:47.142Z,0
2023-01-25T05:17:47.056Z,0
2023-01-25T05:18:49.037Z,0
2023-01-25T05:19:47.059Z,0
2023-01-25T05:20:47.065Z,0
2023-01-25T05:21:47.084Z,0
2023-01-25T05:22:47.060Z,0
2023-01-25T05:23:47.196Z,0
2023-01-25T05:24:47.057Z,0
2023-01-25T05:25:47.068Z,0
2023-01-25T05:26:47.063Z,0
2023-01-25T05:27:47.071Z,0
2023-01-25T05:28:47.060Z,0
2023-01-25T05:29:47.062Z,0
2023-01-25T05:30:47.157Z,0
2023-01-25T05:31:47.159Z,0
2023-01-25T05:32:47.065Z,0
2023-01-25T05:33:47.076Z,0
2023-01-25T05:34:47.057Z,0
2023-01-25T05:35:47.065Z,0
2023-01-25T05:36:47.068Z,0
2023-01-25T05:37:47.093Z,0
2023-01-25T05:38:47.059Z,0
2023-01-25T05:39:47.062Z,0
2023-01-25T05:40:47.070Z,0
2023-01-25T05:41:47.067Z,0
2023-01-25T05:42:47.061Z,0
2023-01-25T05:43:47.070Z,0
2023-01-25T05:44:47.988Z,0
2023-01-25T05:45:47.151Z,0
2023-01-25T05:46:47.088Z,0
2023-01-25T05:47:47.072Z,0
2023-01-25T05:48:47.100Z,0
2023-01-25T05:49:47.058Z,0
2023-01-25T05:50:47.068Z,0
2023-01-25T05:51:47.066Z,0
2023-01-25T05:52:47.074Z,0
2023-01-25T05:53:47.067Z,0
2023-01-25T05:54:47.078Z,0
2023-01-25T05:55:47.068Z,0
2023-01-25T05:56:47.071Z,0
2023-01-25T05:57:47.089Z,0
2023-01-25T05:58:47.085Z,0
2023-01-25T05:59:47.083Z,0
2023-01-25T06:00:47.074Z,0
2023-01-25T06:01:47.079Z,0
2023-01-25T06:02:47.244Z,0
2023-01-25T06:03:47.190Z,0
2023-01-25T06:04:47.085Z,0
2023-01-25T06:05:47.089Z,0
2023-01-25T06:06:47.096Z,0
2023-01-25T06:07:47.105Z,0
2023-01-25T06:08:47.094Z,0
2023-01-25T06:09:47.101Z,0
2023-01-25T06:10:47.092Z,0
2023-01-25T06:11:47.118Z,0
2023-01-25T06:12:47.125Z,0
2023-01-25T06:13:47.104Z,0
2023-01-25T06:14:47.119Z,0
2023-01-25T06:15:47.133Z,0
2023-01-25T06:16:47.109Z,0
2023-01-25T06:17:47.112Z,0
2023-01-25T06:18:47.142Z,0
2023-01-25T06:19:47.117Z,0
2023-01-25T06:20:47.113Z,0
2023-01-25T06:21:47.130Z,0
2023-01-25T06:22:47.130Z,0
2023-01-25T06:23:47.197Z,0
2023-01-25T06:24:47.136Z,0
2023-01-25T06:25:47.123Z,0
2023-01-25T06:26:47.136Z,0
2023-01-25T06:27:47.132Z,0
2023-01-25T06:28:47.124Z,0
2023-01-25T06:29:47.133Z,0
2023-01-25T06:30:47.149Z,0
2023-01-25T06:31:47.145Z,0
2023-01-25T06:32:47.120Z,0
2023-01-25T06:33:47.130Z,0
2023-01-25T06:34:47.160Z,0
2023-01-25T06:35:47.135Z,0
2023-01-25T06:36:47.137Z,0
2023-01-25T06:37:47.151Z,0
2023-01-25T06:38:47.135Z,0
2023-01-25T06:39:47.161Z,0
2023-01-25T06:40:47.133Z,0
2023-01-25T06:41:47.148Z,0
2023-01-25T06:42:47.141Z,0
2023-01-25T06:43:47.149Z,0
2023-01-25T06:44:47.156Z,0
2023-01-25T06:45:47.155Z,0
2023-01-25T06:46:47.181Z,0
2023-01-25T06:47:47.152Z,0
2023-01-25T06:48:47.148Z,0
2023-01-25T06:49:47.156Z,0
2023-01-25T06:50:47.197Z,0
2023-01-25T06:51:47.158Z,0
2023-01-25T06:52:47.177Z,0
2023-01-25T06:53:47.162Z,0
2023-01-25T06:54:47.164Z,0
2023-01-25T06:55:47.173Z,0
2023-01-25T06:56:47.180Z,0
2023-01-25T06:57:47.185Z,0
2023-01-25T06:58:47.173Z,0
2023-01-25T06:59:47.182Z,0
2023-01-25T07:00:47.208Z,0
2023-01-25T07:01:47.246Z,0
2023-01-25T07:02:47.217Z,0
2023-01-25T07:03:47.183Z,0
2023-01-25T07:04:47.178Z,0
2023-01-25T07:05:47.207Z,0
2023-01-25T07:06:47.217Z,0
2023-01-25T07:07:47.200Z,0
2023-01-25T07:08:47.195Z,0
2023-01-25T07:09:47.194Z,0
2023-01-25T07:10:47.203Z,0
2023-01-25T07:11:47.202Z,0
2023-01-25T07:12:47.199Z,0
2023-01-25T07:13:47.232Z,0
2023-01-25T07:14:47.201Z,0
2023-01-25T07:15:47.200Z,0
2023-01-25T07:16:47.211Z,0
2023-01-25T07:17:47.204Z,0
2023-01-25T07:18:47.209Z,0
2023-01-25T07:19:47.209Z,0
2023-01-25T07:20:47.212Z,0
2023-01-25T07:21:47.221Z,0
2023-01-25T07:22:47.241Z,0
2023-01-25T07:23:47.235Z,0
2023-01-25T07:24:47.233Z,0
2023-01-25T07:25:47.221Z,0
2023-01-25T07:26:47.223Z,0
2023-01-25T07:27:47.235Z,0
2023-01-25T07:28:47.228Z,0
2023-01-25T07:29:47.236Z,0
2023-01-25T07:30:47.236Z,0
2023-01-25T07:31:47.374Z,0
2023-01-25T07:32:47.238Z,0
2023-01-25T07:33:47.242Z,0
2023-01-25T07:34:47.240Z,0
2023-01-25T07:35:47.248Z,0
2023-01-25T07:36:47.257Z,0
2023-01-25T07:37:47.249Z,0
2023-01-25T07:38:47.286Z,0
2023-01-25T07:39:47.246Z,0
2023-01-25T07:40:47.237Z,0
2023-01-25T07:41:47.262Z,0
2023-01-25T07:42:47.253Z,0
2023-01-25T07:43:47.248Z,0
2023-01-25T07:44:47.259Z,0
2023-01-25T07:45:47.254Z,0
2023-01-25T07:46:47.263Z,0
2023-01-25T07:47:47.262Z,0
2023-01-25T07:48:47.260Z,0
2023-01-25T07:49:47.276Z,0
2023-01-25T07:50:47.255Z,0
2023-01-25T07:51:47.259Z,0
2023-01-25T07:52:47.281Z,0
2023-01-25T07:53:47.263Z,0
2023-01-25T07:54:48.448Z,0
2023-01-25T07:55:47.276Z,0
2023-01-25T07:56:47.273Z,0
2023-01-25T07:57:47.277Z,0
2023-01-25T07:58:47.318Z,0
2023-01-25T07:59:47.292Z,0
2023-01-25T08:00:47.284Z,0
2023-01-25T08:01:47.293Z,0
2023-01-25T08:02:47.278Z,0
2023-01-25T08:03:47.280Z,0
2023-01-25T08:04:47.281Z,0
2023-01-25T08:05:47.280Z,0
2023-01-25T08:06:47.304Z,0
2023-01-25T08:07:47.309Z,0
2023-01-25T08:08:47.297Z,0
2023-01-25T08:09:47.314Z,0
2023-01-25T08:10:47.317Z,0
2023-01-25T08:11:47.298Z,0
2023-01-25T08:12:47.319Z,0
2023-01-25T08:13:47.304Z,0
2023-01-25T08:14:47.303Z,0
2023-01-25T08:15:47.299Z,0
2023-01-25T08:16:47.325Z,0
2023-01-25T08:17:47.306Z,0
2023-01-25T08:18:47.315Z,0
2023-01-25T08:19:47.307Z,0
2023-01-25T08:20:47.313Z,0
2023-01-25T08:21:47.324Z,0
2023-01-25T08:22:47.319Z,0
2023-01-25T08:23:47.393Z,0
2023-01-25T08:24:47.320Z,0
2023-01-25T08:25:47.312Z,0
2023-01-25T08:26:47.352Z,0
2023-01-25T08:27:47.315Z,0
2023-01-25T08:28:47.324Z,0
2023-01-25T08:29:47.313Z,0
2023-01-25T08:30:56.688Z,0
2023-01-25T08:31:47.407Z,0
2023-01-25T08:32:47.318Z,0
2023-01-25T08:33:47.318Z,0
2023-01-25T08:34:47.324Z,0
2023-01-25T08:35:47.326Z,0
2023-01-25T08:36:47.328Z,0
2023-01-25T08:37:47.329Z,0
2023-01-25T08:38:47.353Z,0
2023-01-25T08:39:47.329Z,0
2023-01-25T08:40:47.347Z,0
2023-01-25T08:41:47.336Z,0
2023-01-25T08:42:47.356Z,0
2023-01-25T08:43:47.365Z,0
2023-01-25T08:44:47.335Z,0
2023-01-25T08:45:47.346Z,0
2023-01-25T08:46:47.352Z,0
2023-01-25T08:47:47.343Z,0
2023-01-25T08:48:47.348Z,0
2023-01-25T08:49:47.344Z,0
2023-01-25T08:50:47.342Z,0
2023-01-25T08:51:47.347Z,0
2023-01-25T08:52:47.352Z,0
2023-01-25T08:53:47.340Z,0
2023-01-25T08:54:47.352Z,0
2023-01-25T08:55:47.367Z,0
2023-01-25T08:56:47.355Z,0
2023-01-25T08:57:47.363Z,0
2023-01-25T08:58:47.435Z,0
2023-01-25T08:59:47.345Z,0
2023-01-25T09:00:47.361Z,0
2023-01-25T09:01:47.359Z,0
2023-01-25T09:02:47.363Z,0
2023-01-25T09:03:47.465Z,0
2023-01-25T09:04:47.362Z,0
2023-01-25T09:05:47.362Z,0
2023-01-25T09:06:47.379Z,0
2023-01-25T09:07:47.723Z,0
2023-01-25T09:08:47.374Z,0
2023-01-25T09:09:47.366Z,0
2023-01-25T09:10:47.381Z,0
2023-01-25T09:11:47.372Z,0
2023-01-25T09:12:47.377Z,0
2023-01-25T09:13:47.370Z,0
2023-01-25T09:14:47.399Z,0
2023-01-25T09:15:47.378Z,0
2023-01-25T09:16:47.390Z,0
2023-01-25T09:17:47.383Z,0
2023-01-25T09:18:49.632Z,0
2023-01-25T09:19:47.383Z,0
2023-01-25T09:20:47.387Z,0
2023-01-25T09:21:47.388Z,0
2023-01-25T09:22:47.394Z,0
2023-01-25T09:23:50.880Z,0
2023-01-25T09:24:47.423Z,0
2023-01-25T09:25:47.402Z,0
2023-01-25T09:26:55.865Z,0
2023-01-25T09:27:47.392Z,0
2023-01-25T09:28:47.389Z,0
2023-01-25T09:30:00.854Z,0
2023-01-25T09:30:53.654Z,0
2023-01-25T09:31:47.438Z,0
2023-01-25T09:32:47.486Z,0
2023-01-25T09:33:47.397Z,0
2023-01-25T09:34:47.402Z,0
2023-01-25T09:35:47.397Z,0
2023-01-25T09:36:47.383Z,0
2023-01-25T09:37:47.401Z,0
2023-01-25T09:38:47.398Z,0
2023-01-25T09:39:47.387Z,0
2023-01-25T09:40:47.388Z,0
2023-01-25T09:41:47.681Z,0
2023-01-25T09:42:47.396Z,0
2023-01-25T09:43:47.412Z,0
2023-01-25T09:44:47.417Z,0
2023-01-25T09:45:47.401Z,0
2023-01-25T09:46:47.422Z,0
2023-01-25T09:47:47.397Z,0
2023-01-25T09:48:48.608Z,0
2023-01-25T09:49:47.395Z,0
2023-01-25T09:50:47.408Z,0
2023-01-25T09:51:47.418Z,0
2023-01-25T09:52:47.404Z,0
2023-01-25T09:53:47.413Z,0
2023-01-25T09:54:47.701Z,0
2023-01-25T09:55:47.418Z,0
2023-01-25T09:56:47.414Z,0
2023-01-25T09:57:47.417Z,0
2023-01-25T09:58:47.419Z,0
2023-01-25T09:59:47.422Z,0
2023-01-25T10:00:47.433Z,0
2023-01-25T10:01:47.531Z,0
2023-01-25T10:02:47.501Z,0
2023-01-25T10:03:47.427Z,0
2023-01-25T10:04:47.420Z,0
2023-01-25T10:05:47.450Z,0
2023-01-25T10:07:01.451Z,0
2023-01-25T10:07:47.422Z,0
2023-01-25T10:08:47.418Z,0
2023-01-25T10:09:47.429Z,0
2023-01-25T10:10:47.428Z,0
2023-01-25T10:11:47.427Z,0
2023-01-25T10:12:47.440Z,0
2023-01-25T10:13:47.419Z,0
2023-01-25T10:14:47.428Z,0
2023-01-25T10:15:47.447Z,0
2023-01-25T10:16:47.477Z,0
2023-01-25T10:17:47.433Z,0
2023-01-25T10:18:47.482Z,0
2023-01-25T10:19:47.419Z,0
2023-01-25T10:20:47.428Z,0
2023-01-25T10:21:47.443Z,0
2023-01-25T10:22:47.444Z,0
2023-01-25T10:23:47.489Z,0
2023-01-25T10:24:47.433Z,0
2023-01-25T10:25:47.431Z,0
2023-01-25T10:26:47.441Z,0
2023-01-25T10:27:47.441Z,0
2023-01-25T10:28:47.461Z,0
2023-01-25T10:29:47.440Z,0
2023-01-25T10:30:47.477Z,0
2023-01-25T10:31:47.483Z,0
2023-01-25T10:32:54.857Z,0
2023-01-25T10:33:47.437Z,0
2023-01-25T10:34:56.154Z,0
2023-01-25T10:35:47.980Z,0
2023-01-25T10:36:47.445Z,0
2023-01-25T10:37:47.440Z,0
2023-01-25T10:38:47.451Z,0
2023-01-25T10:39:47.431Z,0
2023-01-25T10:40:47.441Z,0
2023-01-25T10:41:48.189Z,0
2023-01-25T10:42:47.442Z,0
2023-01-25T10:43:47.440Z,0
2023-01-25T10:44:47.445Z,0
2023-01-25T10:45:47.435Z,0
2023-01-25T10:46:47.470Z,0
2023-01-25T10:47:47.438Z,0
2023-01-25T10:48:47.435Z,0
2023-01-25T10:49:47.570Z,0
2023-01-25T10:50:47.518Z,0
2023-01-25T10:51:47.441Z,0
2023-01-25T10:52:47.443Z,0
2023-01-25T10:53:47.448Z,0
2023-01-25T10:54:47.437Z,0
2023-01-25T10:55:47.436Z,0
2023-01-25T10:56:47.452Z,0
2023-01-25T10:57:47.455Z,0
2023-01-25T10:58:47.435Z,0
2023-01-25T10:59:47.518Z,0
2023-01-25T11:00:47.447Z,0
2023-01-25T11:01:47.552Z,0
2023-01-25T11:02:47.518Z,0
2023-01-25T11:03:47.452Z,0
2023-01-25T11:04:47.449Z,0
2023-01-25T11:05:47.434Z,0
2023-01-25T11:06:47.477Z,0
2023-01-25T11:07:47.448Z,0
2023-01-25T11:08:47.451Z,0
2023-01-25T11:09:47.458Z,0
2023-01-25T11:10:47.463Z,0
2023-01-25T11:11:47.467Z,0
2023-01-25T11:12:47.464Z,0
2023-01-25T11:13:47.452Z,0
2023-01-25T11:14:47.458Z,0
2023-01-25T11:15:47.479Z,0
2023-01-25T11:16:47.449Z,0
2023-01-25T11:17:48.662Z,0
2023-01-25T11:18:47.461Z,0
2023-01-25T11:19:47.479Z,0
2023-01-25T11:20:47.487Z,0
2023-01-25T11:21:47.465Z,0
2023-01-25T11:22:47.510Z,4.800000000000001
2023-01-25T11:23:49.140Z,0
2023-01-25T11:24:47.517Z,0
2023-01-25T11:25:47.481Z,2.8000000000000003
2023-01-25T11:26:47.506Z,0.8
2023-01-25T11:27:47.477Z,6.2
2023-01-25T11:28:47.472Z,6.5
2023-01-25T11:29:47.493Z,3.9000000000000004
2023-01-25T11:30:47.580Z,0.7000000000000001
2023-01-25T11:31:47.508Z,0
2023-01-25T11:32:47.487Z,0
2023-01-25T11:33:47.485Z,8
2023-01-25T11:34:47.478Z,4.5
2023-01-25T11:35:47.487Z,4.4
2023-01-25T11:36:47.496Z,2.8000000000000003
2023-01-25T11:37:47.496Z,4.4
2023-01-25T11:38:47.522Z,1.5
2023-01-25T11:39:47.509Z,4.6000000000000005
2023-01-25T11:40:47.514Z,4.2
2023-01-25T11:41:47.504Z,6
2023-01-25T11:42:47.494Z,2.6
2023-01-25T11:43:47.502Z,0.6000000000000001
2023-01-25T11:44:47.498Z,0
2023-01-25T11:45:47.517Z,0
2023-01-25T11:46:47.607Z,3.5
2023-01-25T11:47:47.533Z,2.9000000000000004
2023-01-25T11:48:47.522Z,0
2023-01-25T11:49:47.503Z,0
2023-01-25T11:50:47.516Z,0
2023-01-25T11:51:48.912Z,0
2023-01-25T11:52:47.513Z,6.1000000000000005
2023-01-25T11:53:47.504Z,4.800000000000001
2023-01-25T11:54:47.539Z,3.4000000000000004
2023-01-25T11:55:47.504Z,4
2023-01-25T11:56:47.526Z,1.4000000000000001
2023-01-25T11:57:47.513Z,0
2023-01-25T11:58:47.514Z,0
2023-01-25T11:59:47.544Z,0
2023-01-25T12:00:47.512Z,0
2023-01-25T12:01:47.547Z,0
2023-01-25T12:02:47.528Z,0
2023-01-25T12:03:47.576Z,0
2023-01-25T12:04:47.521Z,0
2023-01-25T12:05:47.532Z,0
2023-01-25T12:06:47.535Z,0
2023-01-25T12:07:47.526Z,0
2023-01-25T12:08:47.527Z,0
2023-01-25T12:09:47.530Z,0
2023-01-25T12:10:47.556Z,6.300000000000001
2023-01-25T12:11:47.527Z,2.6
2023-01-25T12:12:47.528Z,1.8
2023-01-25T12:13:47.529Z,7.2
2023-01-25T12:14:47.534Z,4.9
2023-01-25T12:15:47.623Z,0
2023-01-25T12:16:47.541Z,0
2023-01-25T12:17:47.543Z,0
2023-01-25T12:18:47.539Z,0
2023-01-25T12:19:47.532Z,0
2023-01-25T12:20:47.552Z,0
2023-01-25T12:21:47.570Z,0
2023-01-25T12:22:47.541Z,0
2023-01-25T12:23:47.591Z,0
2023-01-25T12:24:47.546Z,0
2023-01-25T12:25:47.542Z,3.2
2023-01-25T12:26:47.565Z,0
2023-01-25T12:27:47.541Z,5.300000000000001
2023-01-25T12:28:47.553Z,10.100000000000001
2023-01-25T12:29:47.544Z,9.3
2023-01-25T12:30:47.571Z,7.300000000000001
2023-01-25T12:31:47.609Z,6
2023-01-25T12:32:47.546Z,0
2023-01-25T12:33:47.552Z,8.1
2023-01-25T12:34:47.544Z,6.300000000000001
2023-01-25T12:35:47.556Z,5.1000000000000005
2023-01-25T12:36:47.566Z,1.8
2023-01-25T12:37:47.552Z,3.4000000000000004
2023-01-25T12:38:47.556Z,3.3000000000000003
2023-01-25T12:39:47.570Z,3.1
2023-01-25T12:40:47.558Z,7.5
2023-01-25T12:41:47.551Z,6.9
2023-01-25T12:42:47.601Z,8.200000000000001
2023-01-25T12:43:47.557Z,7.9
2023-01-25T12:44:47.574Z,9.9
2023-01-25T12:45:47.562Z,5.300000000000001
2023-01-25T12:46:47.648Z,11.9
2023-01-25T12:47:47.575Z,4.800000000000001
2023-01-25T12:48:47.566Z,5.5
2023-01-25T12:49:47.556Z,7.7
2023-01-25T12:50:47.572Z,4.7
2023-01-25T12:51:47.566Z,4.2
2023-01-25T12:52:47.559Z,4.4
2023-01-25T12:53:47.571Z,4.9
2023-01-25T12:54:47.578Z,3.8000000000000003
2023-01-25T12:55:47.574Z,7.4
2023-01-25T12:56:47.571Z,8.9
2023-01-25T12:57:47.606Z,3.3000000000000003
2023-01-25T12:58:47.617Z,6.6000000000000005
2023-01-25T12:59:47.581Z,4.4
2023-01-25T13:00:47.634Z,1.5
2023-01-25T13:01:47.630Z,0
2023-01-25T13:02:47.580Z,0
2023-01-25T13:03:47.589Z,0
2023-01-25T13:04:47.585Z,0
2023-01-25T13:05:47.603Z,0
2023-01-25T13:06:47.586Z,0
2023-01-25T13:07:47.587Z,7.4
2023-01-25T13:08:48.889Z,2
2023-01-25T13:09:47.598Z,0
2023-01-25T13:10:47.588Z,0
2023-01-25T13:11:47.596Z,6.2
2023-01-25T13:12:47.592Z,3.2
2023-01-25T13:13:47.599Z,6.6000000000000005
2023-01-25T13:14:47.617Z,4
2023-01-25T13:15:47.592Z,3.7
2023-01-25T13:16:48.097Z,1.2000000000000002
2023-01-25T13:17:47.603Z,0
2023-01-25T13:18:47.597Z,0
2023-01-25T13:19:47.613Z,0
2023-01-25T13:20:47.604Z,3.6
2023-01-25T13:21:47.618Z,0
2023-01-25T13:22:47.612Z,0
2023-01-25T13:23:47.732Z,0
2023-01-25T13:24:47.617Z,0
2023-01-25T13:25:47.615Z,0
2023-01-25T13:26:47.608Z,0
2023-01-25T13:27:47.633Z,4
2023-01-25T13:28:47.633Z,2.7
2023-01-25T13:29:47.615Z,0
2023-01-25T13:30:47.715Z,0
2023-01-25T13:31:52.659Z,0
2023-01-25T13:32:47.628Z,0
2023-01-25T13:33:47.621Z,0
2023-01-25T13:34:47.628Z,0
2023-01-25T13:35:47.628Z,0
2023-01-25T13:36:47.635Z,3.1
2023-01-25T13:37:47.639Z,5.6000000000000005
2023-01-25T13:38:47.640Z,2.9000000000000004
2023-01-25T13:39:47.625Z,0
2023-01-25T13:40:47.644Z,0
2023-01-25T13:41:47.638Z,6.300000000000001
2023-01-25T13:42:47.632Z,4.5
2023-01-25T13:43:47.638Z,0
2023-01-25T13:44:48.090Z,3.8000000000000003
2023-01-25T13:45:47.703Z,0
2023-01-25T13:46:47.663Z,0
2023-01-25T13:47:47.633Z,0
2023-01-25T13:48:47.659Z,0
2023-01-25T13:49:47.641Z,0
2023-01-25T13:50:47.649Z,0
2023-01-25T13:51:47.643Z,2.8000000000000003
2023-01-25T13:52:47.639Z,3.8000000000000003
2023-01-25T13:53:47.653Z,2.2
2023-01-25T13:54:47.685Z,0
2023-01-25T13:55:47.648Z,0
2023-01-25T13:56:47.661Z,0
2023-01-25T13:57:47.667Z,0
2023-01-25T13:58:47.655Z,0
2023-01-25T13:59:48.642Z,0
2023-01-25T14:00:47.686Z,0
2023-01-25T14:01:47.728Z,0
2023-01-25T14:02:47.689Z,0
2023-01-25T14:03:47.660Z,0
2023-01-25T14:04:47.671Z,0
2023-01-25T14:05:47.657Z,0
2023-01-25T14:06:47.663Z,0
2023-01-25T14:07:47.659Z,0
2023-01-25T14:08:47.685Z,0
2023-01-25T14:09:47.669Z,6.9
2023-01-25T14:10:47.675Z,4
2023-01-25T14:11:47.657Z,0
2023-01-25T14:12:47.661Z,0
2023-01-25T14:13:47.670Z,4.9
2023-01-25T14:14:47.686Z,0
2023-01-25T14:15:47.668Z,6
2023-01-25T14:16:47.682Z,5